createdAt,value
2024-03-12T00:02:18.060Z,15.08
2024-03-12T00:04:45.339Z,15.09
2024-03-12T00:07:12.630Z,15.10
2024-03-12T00:09:41.246Z,15.10
2024-03-12T00:12:09.006Z,15.09
2024-03-12T00:14:36.160Z,15.06
2024-03-12T00:17:03.337Z,15.05
2024-03-12T00:19:30.494Z,15.03
2024-03-12T00:21:58.633Z,14.99
2024-03-12T00:24:25.795Z,15.01
2024-03-12T00:26:54.710Z,15.01
2024-03-12T00:29:22.994Z,15.01
2024-03-12T00:31:50.336Z,14.95
2024-03-12T00:34:17.501Z,14.95
2024-03-12T00:36:45.263Z,14.93
2024-03-12T00:39:12.518Z,14.92
2024-03-12T00:41:39.692Z,14.91
2024-03-12T00:44:08.548Z,14.93
2024-03-12T00:46:37.189Z,14.90
2024-03-12T00:49:04.521Z,14.83
2024-03-12T00:51:34.728Z,14.73
2024-03-12T00:54:03.372Z,14.65
2024-03-12T00:56:30.530Z,14.57
2024-03-12T00:58:57.702Z,14.48
2024-03-12T01:01:27.691Z,14.42
2024-03-12T01:03:56.019Z,14.40
2024-03-12T01:06:23.358Z,14.42
2024-03-12T01:08:50.625Z,14.43
2024-03-12T01:11:17.918Z,14.44
2024-03-12T01:13:48.820Z,14.45
2024-03-12T01:16:16.247Z,14.44
2024-03-12T01:18:44.910Z,14.47
2024-03-12T01:21:12.117Z,14.47
2024-03-12T01:23:41.205Z,14.49
2024-03-12T01:26:08.562Z,14.52
2024-03-12T01:28:36.268Z,14.47
2024-03-12T01:31:03.969Z,14.46
2024-03-12T01:33:31.915Z,14.42
2024-03-12T01:36:20.216Z,14.40
2024-03-12T01:38:49.869Z,14.39
2024-03-12T01:41:17.379Z,14.35
2024-03-12T01:43:44.652Z,14.30
2024-03-12T01:46:11.889Z,14.26
2024-03-12T01:48:41.956Z,14.23
2024-03-12T01:51:10.689Z,14.25
2024-03-12T01:53:39.474Z,14.23
2024-03-12T01:56:06.993Z,14.16
2024-03-12T01:58:34.195Z,14.07
2024-03-12T02:01:01.456Z,14.01
2024-03-12T02:03:33.461Z,13.93
2024-03-12T02:06:01.162Z,13.88
2024-03-12T02:08:30.396Z,13.80
2024-03-12T02:10:57.794Z,13.79
2024-03-12T02:13:24.943Z,13.75
2024-03-12T02:15:52.427Z,13.70
2024-03-12T02:18:19.585Z,13.63
2024-03-12T02:20:47.228Z,13.57
2024-03-12T02:23:14.669Z,13.59
2024-03-12T02:25:44.282Z,13.54
2024-03-12T02:28:11.622Z,13.57
2024-03-12T02:30:39.109Z,13.55
2024-03-12T02:33:06.501Z,13.61
2024-03-12T02:35:36.111Z,13.61
2024-03-12T02:38:03.568Z,13.63
2024-03-12T02:40:30.721Z,13.65
2024-03-12T02:42:59.361Z,13.64
2024-03-12T02:45:26.591Z,13.65
2024-03-12T02:47:53.944Z,13.67
2024-03-12T02:50:21.351Z,13.68
2024-03-12T02:52:49.176Z,13.63
2024-03-12T02:55:16.631Z,13.59
2024-03-12T02:57:44.569Z,13.54
2024-03-12T03:00:15.449Z,13.47
2024-03-12T03:02:43.618Z,13.46
2024-03-12T03:05:11.508Z,13.49
2024-03-12T03:07:41.336Z,13.45
2024-03-12T03:10:09.492Z,13.47
2024-03-12T03:12:36.892Z,13.39
2024-03-12T03:15:05.119Z,13.36
2024-03-12T03:17:33.733Z,13.34
2024-03-12T03:20:01.020Z,13.33
2024-03-12T03:22:29.223Z,13.34
2024-03-12T03:24:56.582Z,13.32
2024-03-12T03:27:23.907Z,13.33
2024-03-12T03:29:51.171Z,13.33
2024-03-12T03:32:19.680Z,13.32
2024-03-12T03:34:48.264Z,13.29
2024-03-12T03:37:16.116Z,13.29
2024-03-12T03:39:43.658Z,13.29
2024-03-12T03:42:10.927Z,13.24
2024-03-12T03:44:38.116Z,13.24
2024-03-12T03:47:05.505Z,13.23
2024-03-12T03:49:32.695Z,13.21
2024-03-12T03:52:01.385Z,13.16
2024-03-12T03:54:28.583Z,13.15
2024-03-12T03:56:56.137Z,13.13
2024-03-12T03:59:23.307Z,13.13
2024-03-12T04:01:50.904Z,13.14
2024-03-12T04:04:20.416Z,13.13
2024-03-12T04:06:50.347Z,13.15
2024-03-12T04:09:21.422Z,13.16
2024-03-12T04:11:50.151Z,13.19
2024-03-12T04:14:19.272Z,13.21
2024-03-12T04:16:46.822Z,13.25
2024-03-12T04:19:14.637Z,13.25
2024-03-12T04:21:42.300Z,13.29
2024-03-12T04:24:12.009Z,13.33
2024-03-12T04:26:40.873Z,13.30
2024-03-12T04:29:08.690Z,13.30
2024-03-12T04:31:35.939Z,13.35
2024-03-12T04:34:03.943Z,13.37
2024-03-12T04:36:32.583Z,13.36
2024-03-12T04:38:59.881Z,13.37
2024-03-12T04:41:27.413Z,13.38
2024-03-12T04:43:56.340Z,13.33
2024-03-12T04:46:23.537Z,13.24
2024-03-12T04:48:51.202Z,13.19
2024-03-12T04:51:19.067Z,13.11
2024-03-12T04:53:46.577Z,13.08
2024-03-12T04:56:17.872Z,13.07
2024-03-12T04:58:45.349Z,13.05
2024-03-12T05:01:15.003Z,13.03
2024-03-12T05:03:42.235Z,13.00
2024-03-12T05:06:09.374Z,12.97
2024-03-12T05:08:36.560Z,12.91
2024-03-12T05:11:04.268Z,12.85
2024-03-12T05:13:32.150Z,12.83
2024-03-12T05:15:59.446Z,12.82
2024-03-12T05:18:28.285Z,12.79
2024-03-12T05:20:55.422Z,12.80
2024-03-12T05:23:22.601Z,12.81
2024-03-12T05:25:52.530Z,12.82
2024-03-12T05:28:20.970Z,12.84
2024-03-12T05:30:50.564Z,12.86
2024-03-12T05:33:18.052Z,12.88
2024-03-12T05:35:51.044Z,12.92
2024-03-12T05:38:35.171Z,12.94
2024-03-12T05:41:16.305Z,13.02
2024-03-12T05:44:02.274Z,13.10
2024-03-12T05:46:49.000Z,13.12
2024-03-12T05:49:17.089Z,13.12
2024-03-12T05:51:45.777Z,13.12
2024-03-12T05:54:12.965Z,13.05
2024-03-12T05:56:41.071Z,12.83
2024-03-12T05:59:08.595Z,12.74
2024-03-12T06:01:36.363Z,12.66
2024-03-12T06:04:06.628Z,12.70
2024-03-12T06:06:34.379Z,12.74
2024-03-12T06:09:03.261Z,12.68
2024-03-12T06:11:31.373Z,12.61
2024-03-12T06:14:02.124Z,12.52
2024-03-12T06:16:31.704Z,12.49
2024-03-12T06:18:59.020Z,12.44
2024-03-12T06:21:26.314Z,12.36
2024-03-12T06:23:55.101Z,12.31
2024-03-12T06:26:24.242Z,12.31
2024-03-12T06:28:51.816Z,12.30
2024-03-12T06:31:20.162Z,12.31
2024-03-12T06:33:50.253Z,12.29
2024-03-12T06:36:17.441Z,12.33
2024-03-12T06:38:44.800Z,12.32
2024-03-12T06:41:12.303Z,12.28
2024-03-12T06:43:42.414Z,12.24
2024-03-12T06:46:10.777Z,12.24
2024-03-12T06:48:38.463Z,12.22
2024-03-12T06:51:08.736Z,12.14
2024-03-12T06:53:38.825Z,12.09
2024-03-12T06:56:08.143Z,12.08
2024-03-12T06:58:35.436Z,12.05
2024-03-12T07:01:05.632Z,12.07
2024-03-12T07:03:35.281Z,12.05
2024-03-12T07:06:04.105Z,12.03
2024-03-12T07:08:31.228Z,11.99
2024-03-12T07:10:58.636Z,11.96
2024-03-12T07:13:27.674Z,11.95
2024-03-12T07:15:55.046Z,11.90
2024-03-12T07:18:24.703Z,11.93
2024-03-12T07:20:53.986Z,12.08
2024-03-12T07:23:22.011Z,12.22
2024-03-12T07:25:49.399Z,12.31
2024-03-12T07:28:17.421Z,12.39
2024-03-12T07:30:46.594Z,12.47
2024-03-12T07:33:14.079Z,12.53
2024-03-12T07:35:42.753Z,12.59
2024-03-12T07:38:09.951Z,12.60
2024-03-12T07:40:39.352Z,12.62
2024-03-12T07:43:07.315Z,12.62
2024-03-12T07:45:36.970Z,12.59
2024-03-12T07:48:06.987Z,12.59
2024-03-12T07:50:36.369Z,12.57
2024-03-12T07:53:07.277Z,12.52
2024-03-12T07:55:36.683Z,12.42
2024-03-12T07:58:04.301Z,12.41
2024-03-12T08:00:32.657Z,12.36
2024-03-12T08:02:59.815Z,12.36
2024-03-12T08:05:27.852Z,12.40
2024-03-12T08:07:55.860Z,12.34
2024-03-12T08:10:24.578Z,12.39
2024-03-12T08:12:51.817Z,12.39
2024-03-12T08:15:19.137Z,12.38
2024-03-12T08:17:48.455Z,12.45
2024-03-12T08:20:18.739Z,12.49
2024-03-12T08:22:48.663Z,12.61
2024-03-12T08:25:21.399Z,12.77
2024-03-12T08:27:50.688Z,12.87
2024-03-12T08:30:19.759Z,13.01
2024-03-12T08:32:48.007Z,13.10
2024-03-12T08:35:15.391Z,13.16
2024-03-12T08:37:43.153Z,13.23
2024-03-12T08:40:14.298Z,13.29
2024-03-12T08:42:47.709Z,13.35
2024-03-12T08:45:24.686Z,13.30
2024-03-12T08:47:52.870Z,13.29
2024-03-12T08:50:20.129Z,13.29
2024-03-12T08:52:47.569Z,13.27
2024-03-12T08:55:15.235Z,13.26
2024-03-12T08:57:43.285Z,13.30
2024-03-12T09:00:14.206Z,13.24
2024-03-12T09:02:42.909Z,13.25
2024-03-12T09:05:10.714Z,13.26
2024-03-12T09:07:38.373Z,13.27
2024-03-12T09:10:24.572Z,13.26
2024-03-12T09:12:51.878Z,13.32
2024-03-12T09:15:19.071Z,13.36
2024-03-12T09:17:48.653Z,13.45
2024-03-12T09:20:16.371Z,13.67
2024-03-12T09:22:45.910Z,13.78
2024-03-12T09:25:14.167Z,13.92
2024-03-12T09:27:42.316Z,13.93
2024-03-12T09:30:11.841Z,13.99
2024-03-12T09:32:40.864Z,14.03
2024-03-12T09:35:10.204Z,14.02
2024-03-12T09:37:38.465Z,14.02
2024-03-12T09:40:10.043Z,14.04
2024-03-12T09:42:39.251Z,14.08
2024-03-12T09:45:08.313Z,14.14
2024-03-12T09:47:39.398Z,14.20
2024-03-12T09:50:12.406Z,14.32
2024-03-12T09:52:44.370Z,14.36
2024-03-12T09:55:12.386Z,14.39
2024-03-12T09:57:40.148Z,14.46
2024-03-12T10:00:13.079Z,14.56
2024-03-12T10:02:40.338Z,14.66
2024-03-12T10:05:11.188Z,14.80
2024-03-12T10:08:00.098Z,14.89
2024-03-12T10:10:28.729Z,14.98
2024-03-12T10:12:56.107Z,15.06
2024-03-12T10:15:24.368Z,15.23
2024-03-12T10:17:59.078Z,15.53
2024-03-12T10:20:26.481Z,15.93
2024-03-12T10:23:05.984Z,16.30
2024-03-12T10:25:37.602Z,16.69
2024-03-12T10:28:08.957Z,16.91
2024-03-12T10:30:39.421Z,17.13
2024-03-12T10:33:19.145Z,17.15
2024-03-12T10:35:47.147Z,17.18
2024-03-12T10:38:25.620Z,17.36
2024-03-12T10:40:56.796Z,17.86
2024-03-12T10:43:25.526Z,18.29
2024-03-12T10:45:53.265Z,18.83
2024-03-12T10:48:22.203Z,19.29
2024-03-12T10:50:49.767Z,19.52
2024-03-12T10:53:17.775Z,19.71
2024-03-12T10:55:46.007Z,20.09
2024-03-12T10:58:16.766Z,20.15
2024-03-12T11:00:45.926Z,20.08
2024-03-12T11:03:14.914Z,19.92
2024-03-12T11:05:44.480Z,20.07
2024-03-12T11:08:13.457Z,20.32
2024-03-12T11:10:43.421Z,20.52
2024-03-12T11:13:11.169Z,20.65
2024-03-12T11:15:41.461Z,20.75
2024-03-12T11:18:10.717Z,20.83
2024-03-12T11:20:40.697Z,21.00
2024-03-12T11:23:08.519Z,20.89
2024-03-12T11:25:49.957Z,21.10
2024-03-12T11:28:23.585Z,21.31
2024-03-12T11:31:03.294Z,21.59
2024-03-12T11:33:50.720Z,21.84
2024-03-12T11:36:26.979Z,22.34
2024-03-12T11:38:54.422Z,22.68
2024-03-12T11:41:22.531Z,22.95
2024-03-12T11:43:50.159Z,22.98
2024-03-12T11:46:22.736Z,22.90
2024-03-12T11:48:53.236Z,22.91
2024-03-12T11:51:20.757Z,23.12
2024-03-12T11:53:48.990Z,23.27
2024-03-12T11:56:20.361Z,23.43
2024-03-12T11:58:57.579Z,23.55
2024-03-12T12:01:36.008Z,23.73
2024-03-12T12:04:05.239Z,23.89
2024-03-12T12:06:33.360Z,24.08
2024-03-12T12:09:06.886Z,24.16
2024-03-12T12:11:36.210Z,24.21
2024-03-12T12:14:07.155Z,24.40
2024-03-12T12:16:36.632Z,24.44
2024-03-12T12:19:06.835Z,24.39
2024-03-12T12:21:34.980Z,24.46
2024-03-12T12:24:04.419Z,24.54
2024-03-12T12:26:37.562Z,24.52
2024-03-12T12:29:08.047Z,24.41
2024-03-12T12:31:38.160Z,24.28
2024-03-12T12:34:07.775Z,24.34
2024-03-12T12:36:39.804Z,24.46
2024-03-12T12:39:11.526Z,24.55
2024-03-12T12:41:44.382Z,24.61
2024-03-12T12:44:17.968Z,24.69
2024-03-12T12:46:49.357Z,24.62
2024-03-12T12:49:18.683Z,24.55
2024-03-12T12:51:47.849Z,24.45
2024-03-12T12:54:19.958Z,24.37
2024-03-12T12:56:47.901Z,24.25
2024-03-12T12:59:20.215Z,24.33
2024-03-12T13:01:52.089Z,24.51
2024-03-12T13:04:21.351Z,24.61
2024-03-12T13:06:49.194Z,24.63
2024-03-12T13:09:28.968Z,24.09
2024-03-12T13:11:56.844Z,23.67
2024-03-12T13:14:24.674Z,23.38
2024-03-12T13:16:53.296Z,23.35
2024-03-12T13:19:21.221Z,23.18
2024-03-12T13:21:49.605Z,23.15
2024-03-12T13:24:16.962Z,23.31
2024-03-12T13:26:44.191Z,23.41
2024-03-12T13:29:11.384Z,23.61
2024-03-12T13:31:38.970Z,23.69
2024-03-12T13:34:09.388Z,23.70
2024-03-12T13:36:36.740Z,23.43
2024-03-12T13:39:07.832Z,23.17
2024-03-12T13:41:36.374Z,23.15
2024-03-12T13:44:03.941Z,23.19
2024-03-12T13:46:32.180Z,22.95
2024-03-12T13:49:16.834Z,22.45
2024-03-12T13:51:46.532Z,22.02
2024-03-12T13:54:13.870Z,21.67
2024-03-12T13:56:41.436Z,21.39
2024-03-12T13:59:09.069Z,21.10
2024-03-12T14:01:36.524Z,20.97
2024-03-12T14:04:04.114Z,20.85
2024-03-12T14:06:35.018Z,20.73
2024-03-12T14:09:02.421Z,20.57
2024-03-12T14:11:30.593Z,20.46
2024-03-12T14:13:57.843Z,20.34
2024-03-12T14:16:25.880Z,20.19
2024-03-12T14:18:54.625Z,20.09
2024-03-12T14:21:22.394Z,19.98
2024-03-12T14:23:51.362Z,19.88
2024-03-12T14:26:19.344Z,19.78
2024-03-12T14:28:47.392Z,19.70
2024-03-12T14:31:15.400Z,19.58
2024-03-12T14:33:43.178Z,19.37
2024-03-12T14:36:10.771Z,19.19
2024-03-12T14:38:38.749Z,18.99
2024-03-12T14:41:07.912Z,18.73
2024-03-12T14:43:35.425Z,18.61
2024-03-12T14:46:04.112Z,18.52
2024-03-12T14:48:32.657Z,18.43
2024-03-12T14:51:01.073Z,18.34
2024-03-12T14:53:28.811Z,18.28
2024-03-12T14:55:57.546Z,18.17
2024-03-12T14:58:29.244Z,18.07
2024-03-12T15:00:56.742Z,17.95
2024-03-12T15:03:23.977Z,17.85
2024-03-12T15:05:55.168Z,17.72
2024-03-12T15:08:24.267Z,17.62
2024-03-12T15:10:51.843Z,17.53
2024-03-12T15:13:19.175Z,17.50
2024-03-12T15:15:47.933Z,17.44
2024-03-12T15:18:15.237Z,17.32
2024-03-12T15:20:43.164Z,17.28
2024-03-12T15:23:10.647Z,17.23
2024-03-12T15:25:38.105Z,17.15
2024-03-12T15:28:05.998Z,17.07
2024-03-12T15:30:34.933Z,16.96
2024-03-12T15:33:07.669Z,16.87
2024-03-12T15:35:37.958Z,16.75
2024-03-12T15:38:06.450Z,16.55
2024-03-12T15:40:33.869Z,16.45
2024-03-12T15:43:01.716Z,16.31
2024-03-12T15:45:28.924Z,16.07
2024-03-12T15:47:56.110Z,15.82
2024-03-12T15:50:26.150Z,15.55
2024-03-12T15:52:55.020Z,15.38
2024-03-12T15:55:23.121Z,15.14
2024-03-12T15:57:50.769Z,14.98
2024-03-12T16:00:18.539Z,14.96
2024-03-12T16:02:48.003Z,14.95
2024-03-12T16:05:16.145Z,14.98
2024-03-12T16:07:48.962Z,15.03
2024-03-12T16:10:16.526Z,15.09
2024-03-12T16:12:46.336Z,15.14
2024-03-12T16:15:14.305Z,15.21
2024-03-12T16:17:41.589Z,15.27
2024-03-12T16:20:20.504Z,15.33
2024-03-12T16:22:49.398Z,15.38
2024-03-12T16:25:16.886Z,15.41
2024-03-12T16:27:46.888Z,15.43
2024-03-12T16:30:15.946Z,15.35
2024-03-12T16:32:44.781Z,15.24
2024-03-12T16:35:12.231Z,15.21
2024-03-12T16:37:39.875Z,15.18
2024-03-12T16:40:10.686Z,15.16
2024-03-12T16:42:38.278Z,15.17
2024-03-12T16:45:07.023Z,15.17
2024-03-12T16:47:34.773Z,15.19
2024-03-12T16:50:05.718Z,15.20
2024-03-12T16:52:33.167Z,15.20
2024-03-12T16:55:02.649Z,15.20
2024-03-12T16:57:35.273Z,15.21
2024-03-12T17:00:04.554Z,15.18
2024-03-12T17:02:44.442Z,15.10
2024-03-12T17:05:14.065Z,15.01
2024-03-12T17:07:42.610Z,14.94
2024-03-12T17:10:10.939Z,14.79
2024-03-12T17:12:41.211Z,14.57
2024-03-12T17:15:15.398Z,14.44
2024-03-12T17:17:44.375Z,14.35
2024-03-12T17:20:12.116Z,14.26
2024-03-12T17:22:41.665Z,14.18
2024-03-12T17:25:11.599Z,14.18
2024-03-12T17:27:42.729Z,14.14
2024-03-12T17:30:12.112Z,14.07
2024-03-12T17:32:41.846Z,14.03
2024-03-12T17:35:12.790Z,13.96
2024-03-12T17:37:42.773Z,13.97
2024-03-12T17:40:15.677Z,14.04
2024-03-12T17:42:45.811Z,14.07
2024-03-12T17:45:14.437Z,14.10
2024-03-12T17:47:48.233Z,14.12
2024-03-12T17:50:21.176Z,14.16
2024-03-12T17:52:50.396Z,14.09
2024-03-12T17:55:18.829Z,14.06
2024-03-12T17:57:48.257Z,14.06
2024-03-12T18:00:19.904Z,14.07
2024-03-12T18:02:49.521Z,14.09
2024-03-12T18:05:18.514Z,14.11
2024-03-12T18:07:47.075Z,14.13
2024-03-12T18:10:16.797Z,14.15
2024-03-12T18:12:46.252Z,14.18
2024-03-12T18:15:20.009Z,14.17
2024-03-12T18:17:48.696Z,14.18
2024-03-12T18:20:30.940Z,14.18
2024-03-12T18:22:59.517Z,14.17
2024-03-12T18:25:26.948Z,14.15
2024-03-12T18:27:58.401Z,14.15
2024-03-12T18:30:28.267Z,14.13
2024-03-12T18:32:55.941Z,14.11
2024-03-12T18:35:23.383Z,14.08
2024-03-12T18:37:52.037Z,14.02
2024-03-12T18:40:20.830Z,13.99
2024-03-12T18:42:49.534Z,13.97
2024-03-12T18:45:20.591Z,13.94
2024-03-12T18:47:51.439Z,13.89
2024-03-12T18:50:21.110Z,13.84
2024-03-12T18:52:48.842Z,13.83
2024-03-12T18:55:18.280Z,13.79
2024-03-12T18:57:46.807Z,13.77
2024-03-12T19:00:24.298Z,13.74
2024-03-12T19:02:55.001Z,13.67
2024-03-12T19:05:25.292Z,13.67
2024-03-12T19:07:55.059Z,13.60
2024-03-12T19:10:25.244Z,13.51
2024-03-12T19:12:56.641Z,13.46
2024-03-12T19:15:26.661Z,13.40
2024-03-12T19:17:56.851Z,13.37
2024-03-12T19:20:26.454Z,13.37
2024-03-12T19:22:55.259Z,13.33
2024-03-12T19:25:23.686Z,13.31
2024-03-12T19:27:52.275Z,13.33
2024-03-12T19:30:20.679Z,13.34
2024-03-12T19:32:50.110Z,13.34
2024-03-12T19:35:19.906Z,13.30
2024-03-12T19:37:48.698Z,13.30
2024-03-12T19:40:22.926Z,13.26
2024-03-12T19:42:51.376Z,13.13
2024-03-12T19:45:22.149Z,13.12
2024-03-12T19:47:52.530Z,13.12
2024-03-12T19:50:29.386Z,13.11
2024-03-12T19:52:57.094Z,13.13
2024-03-12T19:55:31.376Z,13.13
2024-03-12T19:58:02.659Z,13.16
2024-03-12T20:00:31.985Z,13.15
2024-03-12T20:03:00.929Z,13.15
2024-03-12T20:05:31.309Z,13.16
2024-03-12T20:07:59.184Z,13.19
2024-03-12T20:10:29.362Z,13.21
2024-03-12T20:12:57.020Z,13.24
2024-03-12T20:15:24.806Z,13.25
2024-03-12T20:17:52.453Z,13.26
2024-03-12T20:20:19.902Z,13.28
2024-03-12T20:22:51.977Z,13.29
2024-03-12T20:25:20.760Z,13.30
2024-03-12T20:27:55.316Z,13.30
2024-03-12T20:30:28.584Z,13.30
2024-03-12T20:32:59.464Z,13.29
2024-03-12T20:35:33.168Z,13.27
2024-03-12T20:38:02.217Z,13.24
2024-03-12T20:40:29.601Z,13.20
2024-03-12T20:43:00.328Z,13.21
2024-03-12T20:45:30.242Z,13.22
2024-03-12T20:47:59.057Z,13.25
2024-03-12T20:50:26.530Z,13.26
2024-03-12T20:52:53.781Z,13.26
2024-03-12T20:55:22.621Z,13.28
2024-03-12T20:57:51.113Z,13.28
2024-03-12T21:00:24.706Z,13.29
2024-03-12T21:02:55.001Z,13.27
2024-03-12T21:05:22.562Z,13.28
2024-03-12T21:07:51.664Z,13.27
2024-03-12T21:10:20.182Z,13.27
2024-03-12T21:12:51.138Z,13.28
2024-03-12T21:15:19.813Z,13.29
2024-03-12T21:17:47.611Z,13.29
2024-03-12T21:20:23.021Z,13.30
2024-03-12T21:22:50.865Z,13.30
2024-03-12T21:25:19.052Z,13.29
2024-03-12T21:27:46.755Z,13.28
2024-03-12T21:30:17.706Z,13.27
2024-03-12T21:32:45.149Z,13.25
2024-03-12T21:35:13.197Z,13.26
2024-03-12T21:37:40.716Z,13.25
2024-03-12T21:40:17.658Z,13.24
2024-03-12T21:42:45.601Z,13.24
2024-03-12T21:45:16.170Z,13.21
2024-03-12T21:47:47.011Z,13.19
2024-03-12T21:50:16.710Z,13.19
2024-03-12T21:52:44.429Z,13.19
2024-03-12T21:55:12.460Z,13.16
2024-03-12T21:57:41.046Z,13.16
2024-03-12T22:00:20.166Z,13.15
2024-03-12T22:02:50.251Z,13.14
2024-03-12T22:05:20.822Z,13.13
2024-03-12T22:07:50.797Z,13.14
2024-03-12T22:10:19.163Z,13.10
2024-03-12T22:12:46.899Z,13.09
2024-03-12T22:15:16.091Z,13.07
2024-03-12T22:17:44.884Z,13.04
2024-03-12T22:20:20.030Z,13.01
2024-03-12T22:22:48.337Z,12.97
2024-03-12T22:25:15.908Z,12.96
2024-03-12T22:27:44.980Z,12.89
2024-03-12T22:30:12.906Z,12.87
2024-03-12T22:32:43.326Z,12.85
2024-03-12T22:35:11.132Z,12.76
2024-03-12T22:37:40.551Z,12.75
2024-03-12T22:40:13.749Z,12.73
2024-03-12T22:42:41.932Z,12.65
2024-03-12T22:45:12.540Z,12.64
2024-03-12T22:47:40.836Z,12.61
2024-03-12T22:50:09.872Z,12.60
2024-03-12T22:52:37.647Z,12.61
2024-03-12T22:55:08.964Z,12.57
2024-03-12T22:57:39.668Z,12.54
2024-03-12T23:00:31.262Z,12.54
2024-03-12T23:03:02.370Z,12.52
2024-03-12T23:05:34.825Z,12.52
2024-03-12T23:08:06.583Z,12.52
2024-03-12T23:10:37.451Z,12.52
2024-03-12T23:13:05.168Z,12.50
2024-03-12T23:15:32.777Z,12.48
2024-03-12T23:18:04.059Z,12.46
2024-03-12T23:20:32.096Z,12.40
2024-03-12T23:22:59.496Z,12.37
2024-03-12T23:25:26.839Z,12.35
2024-03-12T23:27:56.547Z,12.29
2024-03-12T23:30:26.936Z,12.27
2024-03-12T23:32:59.240Z,12.27
2024-03-12T23:35:28.494Z,12.26
2024-03-12T23:37:58.822Z,12.27
2024-03-12T23:40:26.550Z,12.30
2024-03-12T23:42:56.366Z,12.26
2024-03-12T23:45:27.717Z,12.25
2024-03-12T23:47:55.117Z,12.25
2024-03-12T23:50:22.319Z,12.22
2024-03-12T23:52:50.009Z,12.20
2024-03-12T23:55:17.729Z,12.19
2024-03-12T23:57:45.168Z,12.20
